sensor_id;sensor_type;location;lat;lon;timestamp;P1;durP1;ratioP1;P2;durP2;ratioP2
4867;SDS011;2448;48.086;10.862;2023-04-25T00:02:20;1.30;;;1.30;;
4867;SDS011;2448;48.086;10.862;2023-04-25T00:04:45;1.93;;;1.90;;
4867;SDS011;2448;48.086;10.862;2023-04-25T00:07:11;1.40;;;1.33;;
4867;SDS011;2448;48.086;10.862;2023-04-25T00:09:36;1.53;;;1.53;;
4867;SDS011;2448;48.086;10.862;2023-04-25T00:12:02;1.40;;;1.40;;
4867;SDS011;2448;48.086;10.862;2023-04-25T00:14:28;1.73;;;1.63;;
4867;SDS011;2448;48.086;10.862;2023-04-25T00:16:54;1.13;;;1.13;;
4867;SDS011;2448;48.086;10.862;2023-04-25T00:19:19;1.80;;;1.70;;
4867;SDS011;2448;48.086;10.862;2023-04-25T00:21:45;1.20;;;1.20;;
4867;SDS011;2448;48.086;10.862;2023-04-25T00:24:11;1.90;;;1.80;;
4867;SDS011;2448;48.086;10.862;2023-04-25T00:26:36;2.00;;;1.53;;
4867;SDS011;2448;48.086;10.862;2023-04-25T00:29:02;4.20;;;1.80;;
4867;SDS011;2448;48.086;10.862;2023-04-25T00:31:27;1.70;;;1.70;;
4867;SDS011;2448;48.086;10.862;2023-04-25T00:33:54;2.07;;;1.97;;
4867;SDS011;2448;48.086;10.862;2023-04-25T00:36:19;1.40;;;1.40;;
4867;SDS011;2448;48.086;10.862;2023-04-25T00:38:45;1.63;;;1.53;;
4867;SDS011;2448;48.086;10.862;2023-04-25T00:41:10;1.47;;;1.37;;
4867;SDS011;2448;48.086;10.862;2023-04-25T00:43:36;1.43;;;1.33;;
4867;SDS011;2448;48.086;10.862;2023-04-25T00:46:02;1.53;;;1.53;;
4867;SDS011;2448;48.086;10.862;2023-04-25T00:48:28;1.70;;;1.60;;
4867;SDS011;2448;48.086;10.862;2023-04-25T00:50:55;1.40;;;1.40;;
4867;SDS011;2448;48.086;10.862;2023-04-25T00:53:21;1.13;;;1.13;;
4867;SDS011;2448;48.086;10.862;2023-04-25T00:55:47;1.60;;;1.50;;
4867;SDS011;2448;48.086;10.862;2023-04-25T00:58:12;1.73;;;1.67;;
4867;SDS011;2448;48.086;10.862;2023-04-25T01:00:39;1.63;;;1.57;;
4867;SDS011;2448;48.086;10.862;2023-04-25T01:03:05;1.90;;;1.50;;
4867;SDS011;2448;48.086;10.862;2023-04-25T01:05:31;1.63;;;1.57;;
4867;SDS011;2448;48.086;10.862;2023-04-25T01:07:56;3.80;;;1.80;;
4867;SDS011;2448;48.086;10.862;2023-04-25T01:10:22;1.60;;;1.50;;
4867;SDS011;2448;48.086;10.862;2023-04-25T01:12:47;1.93;;;1.83;;
4867;SDS011;2448;48.086;10.862;2023-04-25T01:15:13;2.40;;;2.20;;
4867;SDS011;2448;48.086;10.862;2023-04-25T01:17:38;1.63;;;1.57;;
4867;SDS011;2448;48.086;10.862;2023-04-25T01:20:06;1.80;;;1.70;;
4867;SDS011;2448;48.086;10.862;2023-04-25T01:22:32;1.50;;;1.50;;
4867;SDS011;2448;48.086;10.862;2023-04-25T01:24:58;2.20;;;2.00;;
4867;SDS011;2448;48.086;10.862;2023-04-25T01:27:24;1.70;;;1.60;;
4867;SDS011;2448;48.086;10.862;2023-04-25T01:29:50;2.70;;;2.27;;
4867;SDS011;2448;48.086;10.862;2023-04-25T01:32:15;1.90;;;1.80;;
4867;SDS011;2448;48.086;10.862;2023-04-25T01:34:41;1.70;;;1.60;;
4867;SDS011;2448;48.086;10.862;2023-04-25T01:37:06;1.90;;;1.80;;
4867;SDS011;2448;48.086;10.862;2023-04-25T01:39:32;2.10;;;1.70;;
4867;SDS011;2448;48.086;10.862;2023-04-25T01:41:58;2.30;;;1.80;;
4867;SDS011;2448;48.086;10.862;2023-04-25T01:44:24;1.50;;;1.40;;
4867;SDS011;2448;48.086;10.862;2023-04-25T01:46:50;3.77;;;2.10;;
4867;SDS011;2448;48.086;10.862;2023-04-25T01:49:16;3.23;;;1.80;;
4867;SDS011;2448;48.086;10.862;2023-04-25T01:51:42;2.67;;;2.33;;
4867;SDS011;2448;48.086;10.862;2023-04-25T01:54:08;1.80;;;1.70;;
4867;SDS011;2448;48.086;10.862;2023-04-25T01:56:36;3.90;;;2.67;;
4867;SDS011;2448;48.086;10.862;2023-04-25T01:59:02;2.27;;;2.17;;
4867;SDS011;2448;48.086;10.862;2023-04-25T02:01:49;2.33;;;1.60;;
4867;SDS011;2448;48.086;10.862;2023-04-25T02:04:21;2.77;;;2.13;;
4867;SDS011;2448;48.086;10.862;2023-04-25T02:06:47;2.50;;;1.90;;
4867;SDS011;2448;48.086;10.862;2023-04-25T02:09:12;1.40;;;1.40;;
4867;SDS011;2448;48.086;10.862;2023-04-25T02:11:43;1.43;;;1.43;;
4867;SDS011;2448;48.086;10.862;2023-04-25T02:14:35;1.43;;;1.33;;
4867;SDS011;2448;48.086;10.862;2023-04-25T02:17:10;1.47;;;1.47;;
4867;SDS011;2448;48.086;10.862;2023-04-25T02:19:37;0.83;;;0.83;;
4867;SDS011;2448;48.086;10.862;2023-04-25T02:22:03;1.13;;;1.03;;
4867;SDS011;2448;48.086;10.862;2023-04-25T02:24:28;1.97;;;1.57;;
4867;SDS011;2448;48.086;10.862;2023-04-25T02:26:55;1.10;;;1.10;;
4867;SDS011;2448;48.086;10.862;2023-04-25T02:29:21;1.10;;;1.10;;
4867;SDS011;2448;48.086;10.862;2023-04-25T02:31:46;1.20;;;1.20;;
4867;SDS011;2448;48.086;10.862;2023-04-25T02:34:12;0.87;;;0.87;;
4867;SDS011;2448;48.086;10.862;2023-04-25T02:36:37;1.60;;;1.60;;
4867;SDS011;2448;48.086;10.862;2023-04-25T02:39:03;2.60;;;1.10;;
4867;SDS011;2448;48.086;10.862;2023-04-25T02:41:28;17.13;;;6.33;;
4867;SDS011;2448;48.086;10.862;2023-04-25T02:43:54;2.23;;;2.00;;
4867;SDS011;2448;48.086;10.862;2023-04-25T02:46:20;1.43;;;1.43;;
4867;SDS011;2448;48.086;10.862;2023-04-25T02:48:45;1.63;;;1.53;;
4867;SDS011;2448;48.086;10.862;2023-04-25T02:51:11;4.00;;;1.60;;
4867;SDS011;2448;48.086;10.862;2023-04-25T02:53:36;4.23;;;1.93;;
4867;SDS011;2448;48.086;10.862;2023-04-25T02:56:02;4.77;;;2.03;;
4867;SDS011;2448;48.086;10.862;2023-04-25T02:58:27;1.23;;;1.23;;
4867;SDS011;2448;48.086;10.862;2023-04-25T03:00:53;1.80;;;1.63;;
4867;SDS011;2448;48.086;10.862;2023-04-25T03:03:18;1.70;;;1.60;;
4867;SDS011;2448;48.086;10.862;2023-04-25T03:05:50;1.90;;;1.90;;
4867;SDS011;2448;48.086;10.862;2023-04-25T03:08:19;1.50;;;1.40;;
4867;SDS011;2448;48.086;10.862;2023-04-25T03:10:44;1.20;;;1.20;;
4867;SDS011;2448;48.086;10.862;2023-04-25T03:13:10;1.10;;;1.10;;
4867;SDS011;2448;48.086;10.862;2023-04-25T03:15:37;1.60;;;1.53;;
4867;SDS011;2448;48.086;10.862;2023-04-25T03:18:02;1.27;;;1.20;;
4867;SDS011;2448;48.086;10.862;2023-04-25T03:20:28;1.50;;;1.40;;
4867;SDS011;2448;48.086;10.862;2023-04-25T03:22:53;1.10;;;1.00;;
4867;SDS011;2448;48.086;10.862;2023-04-25T03:25:18;1.50;;;1.37;;
4867;SDS011;2448;48.086;10.862;2023-04-25T03:27:44;1.67;;;1.57;;
4867;SDS011;2448;48.086;10.862;2023-04-25T03:30:10;1.00;;;1.00;;
4867;SDS011;2448;48.086;10.862;2023-04-25T03:32:36;3.70;;;1.93;;
4867;SDS011;2448;48.086;10.862;2023-04-25T03:35:02;1.53;;;1.40;;
4867;SDS011;2448;48.086;10.862;2023-04-25T03:37:28;1.10;;;1.10;;
4867;SDS011;2448;48.086;10.862;2023-04-25T03:39:54;1.33;;;1.30;;
4867;SDS011;2448;48.086;10.862;2023-04-25T03:42:21;3.20;;;1.50;;
4867;SDS011;2448;48.086;10.862;2023-04-25T03:44:48;1.27;;;1.20;;
4867;SDS011;2448;48.086;10.862;2023-04-25T03:47:14;3.10;;;2.50;;
4867;SDS011;2448;48.086;10.862;2023-04-25T03:49:40;2.07;;;1.90;;
4867;SDS011;2448;48.086;10.862;2023-04-25T03:52:05;4.30;;;2.10;;
4867;SDS011;2448;48.086;10.862;2023-04-25T03:54:37;1.60;;;1.60;;
4867;SDS011;2448;48.086;10.862;2023-04-25T03:57:29;1.17;;;1.17;;
4867;SDS011;2448;48.086;10.862;2023-04-25T03:59:54;2.13;;;1.93;;
4867;SDS011;2448;48.086;10.862;2023-04-25T04:02:21;1.40;;;1.40;;
4867;SDS011;2448;48.086;10.862;2023-04-25T04:04:47;1.43;;;1.33;;
4867;SDS011;2448;48.086;10.862;2023-04-25T04:07:13;1.40;;;1.40;;
4867;SDS011;2448;48.086;10.862;2023-04-25T04:09:41;1.63;;;1.43;;
4867;SDS011;2448;48.086;10.862;2023-04-25T04:12:11;1.47;;;1.40;;
4867;SDS011;2448;48.086;10.862;2023-04-25T04:14:39;1.57;;;1.47;;
4867;SDS011;2448;48.086;10.862;2023-04-25T04:17:05;1.60;;;1.50;;
4867;SDS011;2448;48.086;10.862;2023-04-25T04:19:31;1.50;;;1.50;;
4867;SDS011;2448;48.086;10.862;2023-04-25T04:22:12;1.40;;;1.40;;
4867;SDS011;2448;48.086;10.862;2023-04-25T04:24:39;1.80;;;1.70;;
4867;SDS011;2448;48.086;10.862;2023-04-25T04:27:06;1.90;;;1.80;;
4867;SDS011;2448;48.086;10.862;2023-04-25T04:29:35;2.20;;;2.00;;
4867;SDS011;2448;48.086;10.862;2023-04-25T04:32:20;2.37;;;1.70;;
4867;SDS011;2448;48.086;10.862;2023-04-25T04:34:46;2.00;;;1.90;;
4867;SDS011;2448;48.086;10.862;2023-04-25T04:37:14;1.53;;;1.53;;
4867;SDS011;2448;48.086;10.862;2023-04-25T04:39:41;6.13;;;1.47;;
4867;SDS011;2448;48.086;10.862;2023-04-25T04:42:24;1.87;;;1.77;;
4867;SDS011;2448;48.086;10.862;2023-04-25T04:45:22;1.50;;;1.40;;
4867;SDS011;2448;48.086;10.862;2023-04-25T04:48:08;9.30;;;2.00;;
4867;SDS011;2448;48.086;10.862;2023-04-25T04:50:55;3.07;;;2.43;;
4867;SDS011;2448;48.086;10.862;2023-04-25T04:53:39;2.03;;;1.80;;
4867;SDS011;2448;48.086;10.862;2023-04-25T04:56:16;4.10;;;1.73;;
4867;SDS011;2448;48.086;10.862;2023-04-25T04:59:08;2.37;;;1.07;;
4867;SDS011;2448;48.086;10.862;2023-04-25T05:01:48;1.17;;;1.17;;
4867;SDS011;2448;48.086;10.862;2023-04-25T05:04:22;2.47;;;1.20;;
4867;SDS011;2448;48.086;10.862;2023-04-25T05:07:23;1.57;;;1.47;;
4867;SDS011;2448;48.086;10.862;2023-04-25T05:10:06;1.30;;;1.30;;
4867;SDS011;2448;48.086;10.862;2023-04-25T05:12:32;4.00;;;1.47;;
4867;SDS011;2448;48.086;10.862;2023-04-25T05:15:27;2.57;;;1.83;;
4867;SDS011;2448;48.086;10.862;2023-04-25T05:18:06;1.83;;;1.77;;
4867;SDS011;2448;48.086;10.862;2023-04-25T05:20:44;1.20;;;1.20;;
4867;SDS011;2448;48.086;10.862;2023-04-25T05:23:28;1.67;;;1.57;;
4867;SDS011;2448;48.086;10.862;2023-04-25T05:26:08;1.67;;;1.67;;
4867;SDS011;2448;48.086;10.862;2023-04-25T05:28:52;2.40;;;1.50;;
4867;SDS011;2448;48.086;10.862;2023-04-25T05:31:23;1.93;;;1.53;;
4867;SDS011;2448;48.086;10.862;2023-04-25T05:33:54;1.93;;;1.80;;
4867;SDS011;2448;48.086;10.862;2023-04-25T05:36:20;2.13;;;1.90;;
4867;SDS011;2448;48.086;10.862;2023-04-25T05:38:45;11.73;;;2.37;;
4867;SDS011;2448;48.086;10.862;2023-04-25T05:41:20;2.20;;;1.80;;
4867;SDS011;2448;48.086;10.862;2023-04-25T05:43:51;7.00;;;2.43;;
4867;SDS011;2448;48.086;10.862;2023-04-25T05:46:23;1.30;;;1.30;;
4867;SDS011;2448;48.086;10.862;2023-04-25T05:49:24;2.07;;;1.97;;
4867;SDS011;2448;48.086;10.862;2023-04-25T05:52:03;2.40;;;2.17;;
4867;SDS011;2448;48.086;10.862;2023-04-25T05:54:43;2.97;;;2.67;;
4867;SDS011;2448;48.086;10.862;2023-04-25T05:57:08;2.73;;;2.57;;
4867;SDS011;2448;48.086;10.862;2023-04-25T05:59:34;2.53;;;2.43;;
4867;SDS011;2448;48.086;10.862;2023-04-25T06:01:59;2.63;;;2.53;;
4867;SDS011;2448;48.086;10.862;2023-04-25T06:04:26;2.40;;;2.30;;
4867;SDS011;2448;48.086;10.862;2023-04-25T06:06:53;4.10;;;2.87;;
4867;SDS011;2448;48.086;10.862;2023-04-25T06:09:18;6.23;;;3.43;;
4867;SDS011;2448;48.086;10.862;2023-04-25T06:11:44;3.13;;;2.50;;
4867;SDS011;2448;48.086;10.862;2023-04-25T06:14:09;2.50;;;2.40;;
4867;SDS011;2448;48.086;10.862;2023-04-25T06:16:39;3.33;;;3.07;;
4867;SDS011;2448;48.086;10.862;2023-04-25T06:19:04;2.70;;;2.50;;
4867;SDS011;2448;48.086;10.862;2023-04-25T06:21:30;2.33;;;2.20;;
4867;SDS011;2448;48.086;10.862;2023-04-25T06:23:57;3.43;;;3.13;;
4867;SDS011;2448;48.086;10.862;2023-04-25T06:26:23;3.10;;;2.43;;
4867;SDS011;2448;48.086;10.862;2023-04-25T06:28:48;3.90;;;3.40;;
4867;SDS011;2448;48.086;10.862;2023-04-25T06:31:14;2.80;;;2.63;;
4867;SDS011;2448;48.086;10.862;2023-04-25T06:33:42;2.47;;;2.37;;
4867;SDS011;2448;48.086;10.862;2023-04-25T06:36:07;3.00;;;2.80;;
4867;SDS011;2448;48.086;10.862;2023-04-25T06:38:33;2.87;;;2.60;;
4867;SDS011;2448;48.086;10.862;2023-04-25T06:41:00;2.93;;;2.63;;
4867;SDS011;2448;48.086;10.862;2023-04-25T06:43:29;2.23;;;2.00;;
4867;SDS011;2448;48.086;10.862;2023-04-25T06:46:22;3.07;;;2.23;;
4867;SDS011;2448;48.086;10.862;2023-04-25T06:48:48;3.30;;;2.17;;
4867;SDS011;2448;48.086;10.862;2023-04-25T06:51:15;2.70;;;2.50;;
4867;SDS011;2448;48.086;10.862;2023-04-25T06:53:42;1.90;;;1.80;;
4867;SDS011;2448;48.086;10.862;2023-04-25T06:56:14;2.03;;;1.93;;
4867;SDS011;2448;48.086;10.862;2023-04-25T06:58:59;3.80;;;2.10;;
4867;SDS011;2448;48.086;10.862;2023-04-25T07:01:31;3.40;;;2.20;;
4867;SDS011;2448;48.086;10.862;2023-04-25T07:03:58;2.33;;;2.17;;
4867;SDS011;2448;48.086;10.862;2023-04-25T07:06:24;1.70;;;1.63;;
4867;SDS011;2448;48.086;10.862;2023-04-25T07:08:51;3.20;;;2.10;;
4867;SDS011;2448;48.086;10.862;2023-04-25T07:11:16;1.73;;;1.63;;
4867;SDS011;2448;48.086;10.862;2023-04-25T07:13:42;1.70;;;1.63;;
4867;SDS011;2448;48.086;10.862;2023-04-25T07:16:07;1.83;;;1.73;;
4867;SDS011;2448;48.086;10.862;2023-04-25T07:18:34;2.60;;;2.17;;
4867;SDS011;2448;48.086;10.862;2023-04-25T07:21:00;1.73;;;1.47;;
4867;SDS011;2448;48.086;10.862;2023-04-25T07:23:27;2.03;;;1.93;;
4867;SDS011;2448;48.086;10.862;2023-04-25T07:25:52;1.90;;;1.80;;
4867;SDS011;2448;48.086;10.862;2023-04-25T07:28:20;1.63;;;1.53;;
4867;SDS011;2448;48.086;10.862;2023-04-25T07:30:46;3.93;;;1.87;;
4867;SDS011;2448;48.086;10.862;2023-04-25T07:33:12;1.93;;;1.83;;
4867;SDS011;2448;48.086;10.862;2023-04-25T07:35:38;2.20;;;1.83;;
4867;SDS011;2448;48.086;10.862;2023-04-25T07:38:04;2.53;;;2.07;;
4867;SDS011;2448;48.086;10.862;2023-04-25T07:40:31;4.23;;;1.83;;
4867;SDS011;2448;48.086;10.862;2023-04-25T07:43:04;2.30;;;1.67;;
4867;SDS011;2448;48.086;10.862;2023-04-25T07:45:46;2.00;;;1.90;;
4867;SDS011;2448;48.086;10.862;2023-04-25T07:48:18;3.33;;;1.80;;
4867;SDS011;2448;48.086;10.862;2023-04-25T07:50:45;1.67;;;1.63;;
4867;SDS011;2448;48.086;10.862;2023-04-25T07:53:10;1.90;;;1.80;;
4867;SDS011;2448;48.086;10.862;2023-04-25T07:55:43;1.97;;;1.80;;
4867;SDS011;2448;48.086;10.862;2023-04-25T07:58:14;1.63;;;1.60;;
4867;SDS011;2448;48.086;10.862;2023-04-25T08:00:42;4.60;;;1.80;;
4867;SDS011;2448;48.086;10.862;2023-04-25T08:03:40;1.60;;;1.50;;
4867;SDS011;2448;48.086;10.862;2023-04-25T08:06:12;1.60;;;1.30;;
4867;SDS011;2448;48.086;10.862;2023-04-25T08:08:48;2.20;;;2.00;;
4867;SDS011;2448;48.086;10.862;2023-04-25T08:11:16;4.33;;;1.67;;
4867;SDS011;2448;48.086;10.862;2023-04-25T08:13:42;1.63;;;1.53;;
4867;SDS011;2448;48.086;10.862;2023-04-25T08:16:08;3.07;;;1.70;;
4867;SDS011;2448;48.086;10.862;2023-04-25T08:18:34;2.00;;;1.90;;
4867;SDS011;2448;48.086;10.862;2023-04-25T08:20:59;1.50;;;1.50;;
4867;SDS011;2448;48.086;10.862;2023-04-25T08:23:25;1.50;;;1.40;;
4867;SDS011;2448;48.086;10.862;2023-04-25T08:25:53;2.17;;;1.40;;
4867;SDS011;2448;48.086;10.862;2023-04-25T08:28:23;2.50;;;1.80;;
4867;SDS011;2448;48.086;10.862;2023-04-25T08:30:48;1.20;;;1.20;;
4867;SDS011;2448;48.086;10.862;2023-04-25T08:33:14;1.70;;;1.60;;
4867;SDS011;2448;48.086;10.862;2023-04-25T08:35:56;4.30;;;1.93;;
4867;SDS011;2448;48.086;10.862;2023-04-25T08:38:21;2.30;;;1.70;;
4867;SDS011;2448;48.086;10.862;2023-04-25T08:40:48;1.20;;;1.20;;
4867;SDS011;2448;48.086;10.862;2023-04-25T08:43:16;4.73;;;2.23;;
4867;SDS011;2448;48.086;10.862;2023-04-25T08:45:43;2.13;;;1.80;;
4867;SDS011;2448;48.086;10.862;2023-04-25T08:48:14;1.67;;;1.57;;
4867;SDS011;2448;48.086;10.862;2023-04-25T08:50:43;7.73;;;1.40;;
4867;SDS011;2448;48.086;10.862;2023-04-25T08:53:10;2.87;;;1.63;;
4867;SDS011;2448;48.086;10.862;2023-04-25T08:55:39;6.27;;;1.53;;
4867;SDS011;2448;48.086;10.862;2023-04-25T08:58:09;11.23;;;1.63;;
4867;SDS011;2448;48.086;10.862;2023-04-25T09:00:35;1.40;;;1.30;;
4867;SDS011;2448;48.086;10.862;2023-04-25T09:03:00;1.80;;;1.40;;
4867;SDS011;2448;48.086;10.862;2023-04-25T09:05:30;1.10;;;1.10;;
4867;SDS011;2448;48.086;10.862;2023-04-25T09:07:55;2.47;;;1.50;;
4867;SDS011;2448;48.086;10.862;2023-04-25T09:10:22;16.17;;;1.70;;
4867;SDS011;2448;48.086;10.862;2023-04-25T09:13:04;5.63;;;1.77;;
4867;SDS011;2448;48.086;10.862;2023-04-25T09:15:32;1.77;;;1.40;;
4867;SDS011;2448;48.086;10.862;2023-04-25T09:17:58;1.60;;;1.50;;
4867;SDS011;2448;48.086;10.862;2023-04-25T09:20:28;2.60;;;1.40;;
4867;SDS011;2448;48.086;10.862;2023-04-25T09:23:04;1.60;;;1.50;;
4867;SDS011;2448;48.086;10.862;2023-04-25T09:25:35;1.53;;;1.43;;
4867;SDS011;2448;48.086;10.862;2023-04-25T09:28:05;1.47;;;1.43;;
4867;SDS011;2448;48.086;10.862;2023-04-25T09:30:32;2.17;;;1.73;;
4867;SDS011;2448;48.086;10.862;2023-04-25T09:33:04;1.63;;;1.53;;
4867;SDS011;2448;48.086;10.862;2023-04-25T09:35:32;1.40;;;1.40;;
4867;SDS011;2448;48.086;10.862;2023-04-25T09:38:00;1.40;;;1.40;;
4867;SDS011;2448;48.086;10.862;2023-04-25T09:41:00;1.40;;;1.40;;
4867;SDS011;2448;48.086;10.862;2023-04-25T09:43:37;6.00;;;1.90;;
4867;SDS011;2448;48.086;10.862;2023-04-25T09:46:07;3.67;;;1.90;;
4867;SDS011;2448;48.086;10.862;2023-04-25T09:48:35;8.07;;;2.23;;
4867;SDS011;2448;48.086;10.862;2023-04-25T09:53:28;2.13;;;1.80;;
4867;SDS011;2448;48.086;10.862;2023-04-25T09:56:17;1.10;;;1.10;;
4867;SDS011;2448;48.086;10.862;2023-04-25T09:58:44;2.00;;;1.43;;
4867;SDS011;2448;48.086;10.862;2023-04-25T10:01:10;1.30;;;1.30;;
4867;SDS011;2448;48.086;10.862;2023-04-25T10:03:46;0.80;;;0.80;;
4867;SDS011;2448;48.086;10.862;2023-04-25T10:06:28;1.17;;;1.10;;
4867;SDS011;2448;48.086;10.862;2023-04-25T10:08:54;1.37;;;1.27;;
4867;SDS011;2448;48.086;10.862;2023-04-25T10:11:21;1.37;;;1.27;;
4867;SDS011;2448;48.086;10.862;2023-04-25T10:13:48;8.30;;;1.83;;
4867;SDS011;2448;48.086;10.862;2023-04-25T10:16:13;1.43;;;1.40;;
4867;SDS011;2448;48.086;10.862;2023-04-25T10:18:39;1.60;;;1.60;;
4867;SDS011;2448;48.086;10.862;2023-04-25T10:21:04;2.20;;;1.83;;
4867;SDS011;2448;48.086;10.862;2023-04-25T10:23:31;1.17;;;1.17;;
4867;SDS011;2448;48.086;10.862;2023-04-25T10:25:57;1.87;;;1.77;;
4867;SDS011;2448;48.086;10.862;2023-04-25T10:28:22;1.90;;;1.47;;
4867;SDS011;2448;48.086;10.862;2023-04-25T10:30:57;1.20;;;1.20;;
4867;SDS011;2448;48.086;10.862;2023-04-25T10:33:30;1.03;;;0.90;;
4867;SDS011;2448;48.086;10.862;2023-04-25T10:35:57;0.70;;;0.70;;
4867;SDS011;2448;48.086;10.862;2023-04-25T10:38:23;1.17;;;1.17;;
4867;SDS011;2448;48.086;10.862;2023-04-25T10:41:08;0.80;;;0.80;;
4867;SDS011;2448;48.086;10.862;2023-04-25T10:43:38;0.80;;;0.80;;
4867;SDS011;2448;48.086;10.862;2023-04-25T10:46:23;0.90;;;0.90;;
4867;SDS011;2448;48.086;10.862;2023-04-25T10:48:49;2.10;;;1.30;;
4867;SDS011;2448;48.086;10.862;2023-04-25T10:51:31;1.60;;;1.50;;
4867;SDS011;2448;48.086;10.862;2023-04-25T10:54:01;1.13;;;1.03;;
4867;SDS011;2448;48.086;10.862;2023-04-25T10:56:37;1.37;;;1.30;;
4867;SDS011;2448;48.086;10.862;2023-04-25T10:59:18;1.43;;;1.30;;
4867;SDS011;2448;48.086;10.862;2023-04-25T11:01:45;1.13;;;1.10;;
4867;SDS011;2448;48.086;10.862;2023-04-25T11:04:23;0.90;;;0.90;;
4867;SDS011;2448;48.086;10.862;2023-04-25T11:07:09;0.70;;;0.70;;
4867;SDS011;2448;48.086;10.862;2023-04-25T11:09:36;1.00;;;1.00;;
4867;SDS011;2448;48.086;10.862;2023-04-25T11:12:03;0.70;;;0.70;;
4867;SDS011;2448;48.086;10.862;2023-04-25T11:14:28;0.80;;;0.80;;
4867;SDS011;2448;48.086;10.862;2023-04-25T11:16:54;0.83;;;0.83;;
4867;SDS011;2448;48.086;10.862;2023-04-25T11:19:23;0.93;;;0.93;;
4867;SDS011;2448;48.086;10.862;2023-04-25T11:21:49;0.77;;;0.77;;
4867;SDS011;2448;48.086;10.862;2023-04-25T11:24:15;0.90;;;0.90;;
4867;SDS011;2448;48.086;10.862;2023-04-25T11:26:41;0.90;;;0.90;;
4867;SDS011;2448;48.086;10.862;2023-04-25T11:29:07;0.90;;;0.90;;
4867;SDS011;2448;48.086;10.862;2023-04-25T11:31:32;0.93;;;0.93;;
4867;SDS011;2448;48.086;10.862;2023-04-25T11:33:58;1.20;;;1.20;;
4867;SDS011;2448;48.086;10.862;2023-04-25T11:36:23;1.30;;;1.27;;
4867;SDS011;2448;48.086;10.862;2023-04-25T11:38:50;1.57;;;1.50;;
4867;SDS011;2448;48.086;10.862;2023-04-25T11:41:15;2.17;;;1.20;;
4867;SDS011;2448;48.086;10.862;2023-04-25T11:43:43;0.90;;;0.90;;
4867;SDS011;2448;48.086;10.862;2023-04-25T11:46:09;2.00;;;1.03;;
4867;SDS011;2448;48.086;10.862;2023-04-25T11:48:41;1.17;;;1.17;;
4867;SDS011;2448;48.086;10.862;2023-04-25T11:51:06;1.00;;;1.00;;
4867;SDS011;2448;48.086;10.862;2023-04-25T11:53:32;0.97;;;0.80;;
4867;SDS011;2448;48.086;10.862;2023-04-25T11:55:57;0.80;;;0.80;;
4867;SDS011;2448;48.086;10.862;2023-04-25T11:58:22;0.80;;;0.80;;
4867;SDS011;2448;48.086;10.862;2023-04-25T12:00:48;0.67;;;0.67;;
4867;SDS011;2448;48.086;10.862;2023-04-25T12:03:13;0.90;;;0.90;;
4867;SDS011;2448;48.086;10.862;2023-04-25T12:05:39;0.83;;;0.83;;
4867;SDS011;2448;48.086;10.862;2023-04-25T12:08:14;0.70;;;0.70;;
4867;SDS011;2448;48.086;10.862;2023-04-25T12:10:41;0.93;;;0.93;;
4867;SDS011;2448;48.086;10.862;2023-04-25T12:13:19;0.80;;;0.80;;
4867;SDS011;2448;48.086;10.862;2023-04-25T12:15:45;0.83;;;0.83;;
4867;SDS011;2448;48.086;10.862;2023-04-25T12:18:10;0.90;;;0.83;;
4867;SDS011;2448;48.086;10.862;2023-04-25T12:20:36;1.00;;;1.00;;
4867;SDS011;2448;48.086;10.862;2023-04-25T12:23:01;1.03;;;1.03;;
4867;SDS011;2448;48.086;10.862;2023-04-25T12:25:37;0.70;;;0.70;;
4867;SDS011;2448;48.086;10.862;2023-04-25T12:30:51;1.10;;;1.10;;
4867;SDS011;2448;48.086;10.862;2023-04-25T12:33:17;0.87;;;0.87;;
4867;SDS011;2448;48.086;10.862;2023-04-25T12:35:42;1.20;;;1.10;;
4867;SDS011;2448;48.086;10.862;2023-04-25T12:38:07;1.50;;;1.17;;
4867;SDS011;2448;48.086;10.862;2023-04-25T12:40:33;0.80;;;0.80;;
4867;SDS011;2448;48.086;10.862;2023-04-25T12:42:59;1.07;;;1.07;;
4867;SDS011;2448;48.086;10.862;2023-04-25T12:45:24;2.17;;;1.37;;
4867;SDS011;2448;48.086;10.862;2023-04-25T12:47:49;0.90;;;0.90;;
4867;SDS011;2448;48.086;10.862;2023-04-25T12:50:15;0.80;;;0.80;;
4867;SDS011;2448;48.086;10.862;2023-04-25T12:52:40;0.70;;;0.70;;
4867;SDS011;2448;48.086;10.862;2023-04-25T12:55:06;0.80;;;0.80;;
4867;SDS011;2448;48.086;10.862;2023-04-25T12:57:31;0.80;;;0.80;;
4867;SDS011;2448;48.086;10.862;2023-04-25T12:59:57;0.60;;;0.60;;
4867;SDS011;2448;48.086;10.862;2023-04-25T13:02:22;0.67;;;0.67;;
4867;SDS011;2448;48.086;10.862;2023-04-25T13:04:48;0.60;;;0.60;;
4867;SDS011;2448;48.086;10.862;2023-04-25T13:07:13;0.70;;;0.70;;
4867;SDS011;2448;48.086;10.862;2023-04-25T13:09:39;0.83;;;0.83;;
4867;SDS011;2448;48.086;10.862;2023-04-25T13:12:04;2.17;;;1.07;;
4867;SDS011;2448;48.086;10.862;2023-04-25T13:14:30;0.80;;;0.80;;
4867;SDS011;2448;48.086;10.862;2023-04-25T13:16:55;0.60;;;0.60;;
4867;SDS011;2448;48.086;10.862;2023-04-25T13:19:21;0.70;;;0.70;;
4867;SDS011;2448;48.086;10.862;2023-04-25T13:21:46;0.70;;;0.70;;
4867;SDS011;2448;48.086;10.862;2023-04-25T13:24:12;0.70;;;0.70;;
4867;SDS011;2448;48.086;10.862;2023-04-25T13:26:37;0.60;;;0.60;;
4867;SDS011;2448;48.086;10.862;2023-04-25T13:29:02;0.90;;;0.90;;
4867;SDS011;2448;48.086;10.862;2023-04-25T13:31:29;0.70;;;0.70;;
4867;SDS011;2448;48.086;10.862;2023-04-25T13:33:54;0.60;;;0.60;;
4867;SDS011;2448;48.086;10.862;2023-04-25T13:36:19;0.57;;;0.57;;
4867;SDS011;2448;48.086;10.862;2023-04-25T13:38:45;0.60;;;0.60;;
4867;SDS011;2448;48.086;10.862;2023-04-25T13:41:12;0.63;;;0.63;;
4867;SDS011;2448;48.086;10.862;2023-04-25T13:43:42;1.47;;;0.80;;
4867;SDS011;2448;48.086;10.862;2023-04-25T13:46:08;1.30;;;1.10;;
4867;SDS011;2448;48.086;10.862;2023-04-25T13:48:33;2.00;;;1.70;;
4867;SDS011;2448;48.086;10.862;2023-04-25T13:50:58;0.90;;;0.90;;
4867;SDS011;2448;48.086;10.862;2023-04-25T13:53:24;2.67;;;0.80;;
4867;SDS011;2448;48.086;10.862;2023-04-25T13:55:49;1.00;;;1.00;;
4867;SDS011;2448;48.086;10.862;2023-04-25T13:58:15;0.70;;;0.70;;
4867;SDS011;2448;48.086;10.862;2023-04-25T14:00:40;0.70;;;0.70;;
4867;SDS011;2448;48.086;10.862;2023-04-25T14:03:08;0.80;;;0.80;;
4867;SDS011;2448;48.086;10.862;2023-04-25T14:05:34;0.80;;;0.80;;
4867;SDS011;2448;48.086;10.862;2023-04-25T14:08:03;1.20;;;1.20;;
4867;SDS011;2448;48.086;10.862;2023-04-25T14:10:29;0.77;;;0.77;;
4867;SDS011;2448;48.086;10.862;2023-04-25T14:12:54;0.80;;;0.80;;
4867;SDS011;2448;48.086;10.862;2023-04-25T14:15:19;1.10;;;1.10;;
4867;SDS011;2448;48.086;10.862;2023-04-25T14:17:45;1.13;;;1.03;;
4867;SDS011;2448;48.086;10.862;2023-04-25T14:20:10;0.87;;;0.87;;
4867;SDS011;2448;48.086;10.862;2023-04-25T14:22:36;0.80;;;0.80;;
4867;SDS011;2448;48.086;10.862;2023-04-25T14:25:06;1.10;;;1.00;;
4867;SDS011;2448;48.086;10.862;2023-04-25T14:27:31;0.80;;;0.80;;
4867;SDS011;2448;48.086;10.862;2023-04-25T14:29:57;0.60;;;0.60;;
4867;SDS011;2448;48.086;10.862;2023-04-25T14:32:22;0.60;;;0.60;;
4867;SDS011;2448;48.086;10.862;2023-04-25T14:34:48;0.83;;;0.83;;
4867;SDS011;2448;48.086;10.862;2023-04-25T14:37:13;1.17;;;1.07;;
4867;SDS011;2448;48.086;10.862;2023-04-25T14:39:38;4.00;;;0.73;;
4867;SDS011;2448;48.086;10.862;2023-04-25T14:42:04;0.67;;;0.67;;
4867;SDS011;2448;48.086;10.862;2023-04-25T14:44:29;0.80;;;0.80;;
4867;SDS011;2448;48.086;10.862;2023-04-25T14:46:55;0.70;;;0.70;;
4867;SDS011;2448;48.086;10.862;2023-04-25T14:49:20;0.80;;;0.80;;
4867;SDS011;2448;48.086;10.862;2023-04-25T14:51:45;0.80;;;0.80;;
4867;SDS011;2448;48.086;10.862;2023-04-25T14:54:11;0.60;;;0.60;;
4867;SDS011;2448;48.086;10.862;2023-04-25T14:56:37;0.70;;;0.70;;
4867;SDS011;2448;48.086;10.862;2023-04-25T14:59:02;0.60;;;0.60;;
4867;SDS011;2448;48.086;10.862;2023-04-25T15:01:27;0.70;;;0.70;;
4867;SDS011;2448;48.086;10.862;2023-04-25T15:03:53;0.90;;;0.90;;
4867;SDS011;2448;48.086;10.862;2023-04-25T15:06:18;0.87;;;0.87;;
4867;SDS011;2448;48.086;10.862;2023-04-25T15:08:44;1.00;;;1.00;;
4867;SDS011;2448;48.086;10.862;2023-04-25T15:11:09;0.80;;;0.80;;
4867;SDS011;2448;48.086;10.862;2023-04-25T15:13:36;0.90;;;0.90;;
4867;SDS011;2448;48.086;10.862;2023-04-25T15:16:01;2.00;;;1.30;;